sensor_id;sensor_type;location;lat;lon;timestamp;temperature;humidity
27747;DHT22;15138;51.012;4.692;2023-03-12T00:01:15;4.60;99.90
27747;DHT22;15138;51.012;4.692;2023-03-12T00:03:45;4.60;99.90
27747;DHT22;15138;51.012;4.692;2023-03-12T00:06:14;4.60;99.90
27747;DHT22;15138;51.012;4.692;2023-03-12T00:08:43;4.60;99.90
27747;DHT22;15138;51.012;4.692;2023-03-12T00:11:15;4.50;99.90
27747;DHT22;15138;51.012;4.692;2023-03-12T00:13:47;4.50;99.90
27747;DHT22;15138;51.012;4.692;2023-03-12T00:16:16;4.50;99.90
27747;DHT22;15138;51.012;4.692;2023-03-12T00:18:47;4.50;99.90
27747;DHT22;15138;51.012;4.692;2023-03-12T00:21:15;4.50;99.90
27747;DHT22;15138;51.012;4.692;2023-03-12T00:23:45;4.50;99.90
27747;DHT22;15138;51.012;4.692;2023-03-12T00:26:16;4.50;99.90
27747;DHT22;15138;51.012;4.692;2023-03-12T00:28:46;4.60;99.90
27747;DHT22;15138;51.012;4.692;2023-03-12T00:31:17;4.60;99.90
27747;DHT22;15138;51.012;4.692;2023-03-12T00:33:46;4.70;99.90
27747;DHT22;15138;51.012;4.692;2023-03-12T00:36:16;4.70;99.90
27747;DHT22;15138;51.012;4.692;2023-03-12T00:38:44;4.70;99.90
27747;DHT22;15138;51.012;4.692;2023-03-12T00:41:12;4.60;99.90
27747;DHT22;15138;51.012;4.692;2023-03-12T00:43:42;4.70;99.90
27747;DHT22;15138;51.012;4.692;2023-03-12T00:46:11;4.70;99.90
27747;DHT22;15138;51.012;4.692;2023-03-12T00:48:40;4.70;99.90
27747;DHT22;15138;51.012;4.692;2023-03-12T00:51:08;4.70;99.90
27747;DHT22;15138;51.012;4.692;2023-03-12T00:53:37;4.70;99.90
27747;DHT22;15138;51.012;4.692;2023-03-12T00:56:06;4.70;99.90
27747;DHT22;15138;51.012;4.692;2023-03-12T00:58:34;4.70;99.90
27747;DHT22;15138;51.012;4.692;2023-03-12T01:01:05;4.70;99.90
27747;DHT22;15138;51.012;4.692;2023-03-12T01:03:33;4.70;99.90
27747;DHT22;15138;51.012;4.692;2023-03-12T01:06:02;4.70;99.90
27747;DHT22;15138;51.012;4.692;2023-03-12T01:08:30;4.60;99.90
27747;DHT22;15138;51.012;4.692;2023-03-12T01:10:59;4.60;99.90
27747;DHT22;15138;51.012;4.692;2023-03-12T01:13:27;4.60;99.90
27747;DHT22;15138;51.012;4.692;2023-03-12T01:15:56;4.60;99.90
27747;DHT22;15138;51.012;4.692;2023-03-12T01:18:26;4.60;99.90
27747;DHT22;15138;51.012;4.692;2023-03-12T01:20:54;4.60;99.90
27747;DHT22;15138;51.012;4.692;2023-03-12T01:23:22;4.60;99.90
27747;DHT22;15138;51.012;4.692;2023-03-12T01:25:51;4.60;99.90
27747;DHT22;15138;51.012;4.692;2023-03-12T01:28:22;4.70;99.90
27747;DHT22;15138;51.012;4.692;2023-03-12T01:30:51;4.70;99.90
27747;DHT22;15138;51.012;4.692;2023-03-12T01:33:20;4.70;99.90
27747;DHT22;15138;51.012;4.692;2023-03-12T01:35:51;4.70;99.90
27747;DHT22;15138;51.012;4.692;2023-03-12T01:38:19;4.70;99.90
27747;DHT22;15138;51.012;4.692;2023-03-12T01:40:47;4.80;99.90
27747;DHT22;15138;51.012;4.692;2023-03-12T01:43:26;4.90;99.90
27747;DHT22;15138;51.012;4.692;2023-03-12T01:46:25;4.90;99.90
27747;DHT22;15138;51.012;4.692;2023-03-12T01:48:57;4.90;99.90
27747;DHT22;15138;51.012;4.692;2023-03-12T01:51:30;4.90;99.90
27747;DHT22;15138;51.012;4.692;2023-03-12T01:54:04;4.90;99.90
27747;DHT22;15138;51.012;4.692;2023-03-12T01:56:35;5.00;99.90
27747;DHT22;15138;51.012;4.692;2023-03-12T01:59:09;5.20;99.90
27747;DHT22;15138;51.012;4.692;2023-03-12T02:01:40;5.10;67.20
27747;DHT22;15138;51.012;4.692;2023-03-12T02:04:09;4.90;99.90
27747;DHT22;15138;51.012;4.692;2023-03-12T02:06:44;5.10;99.90
27747;DHT22;15138;51.012;4.692;2023-03-12T02:09:16;5.10;99.90
27747;DHT22;15138;51.012;4.692;2023-03-12T02:11:46;5.10;99.90
27747;DHT22;15138;51.012;4.692;2023-03-12T02:14:15;5.10;99.90
27747;DHT22;15138;51.012;4.692;2023-03-12T02:16:44;5.10;99.90
27747;DHT22;15138;51.012;4.692;2023-03-12T02:19:18;5.10;99.90
27747;DHT22;15138;51.012;4.692;2023-03-12T02:21:50;5.10;1.00
27747;DHT22;15138;51.012;4.692;2023-03-12T02:24:27;5.10;1.00
27747;DHT22;15138;51.012;4.692;2023-03-12T02:27:00;5.10;1.00
27747;DHT22;15138;51.012;4.692;2023-03-12T02:29:31;5.20;1.00
27747;DHT22;15138;51.012;4.692;2023-03-12T02:36:59;4.90;99.90
27747;DHT22;15138;51.012;4.692;2023-03-12T02:39:27;4.90;99.90
27747;DHT22;15138;51.012;4.692;2023-03-12T02:41:56;4.80;99.90
27747;DHT22;15138;51.012;4.692;2023-03-12T02:44:29;4.80;99.90
27747;DHT22;15138;51.012;4.692;2023-03-12T02:47:00;4.80;99.90
27747;DHT22;15138;51.012;4.692;2023-03-12T02:49:31;4.80;99.90
27747;DHT22;15138;51.012;4.692;2023-03-12T02:52:00;4.80;99.90
27747;DHT22;15138;51.012;4.692;2023-03-12T02:54:29;4.80;99.90
27747;DHT22;15138;51.012;4.692;2023-03-12T02:56:57;4.80;99.90
27747;DHT22;15138;51.012;4.692;2023-03-12T02:59:27;4.70;99.90
27747;DHT22;15138;51.012;4.692;2023-03-12T03:01:57;4.60;99.90
27747;DHT22;15138;51.012;4.692;2023-03-12T03:04:26;4.70;99.90
27747;DHT22;15138;51.012;4.692;2023-03-12T03:06:55;4.70;99.90
27747;DHT22;15138;51.012;4.692;2023-03-12T03:09:23;4.60;99.90
27747;DHT22;15138;51.012;4.692;2023-03-12T03:11:52;4.70;99.90
27747;DHT22;15138;51.012;4.692;2023-03-12T03:14:21;4.70;99.90
27747;DHT22;15138;51.012;4.692;2023-03-12T03:16:51;4.70;99.90
27747;DHT22;15138;51.012;4.692;2023-03-12T03:19:19;4.70;99.90
27747;DHT22;15138;51.012;4.692;2023-03-12T03:21:48;4.70;99.90
27747;DHT22;15138;51.012;4.692;2023-03-12T03:24:17;4.60;99.90
27747;DHT22;15138;51.012;4.692;2023-03-12T03:26:45;4.60;99.90
27747;DHT22;15138;51.012;4.692;2023-03-12T03:29:14;4.60;99.90
27747;DHT22;15138;51.012;4.692;2023-03-12T03:31:43;4.60;99.90
27747;DHT22;15138;51.012;4.692;2023-03-12T03:34:12;4.60;99.90
27747;DHT22;15138;51.012;4.692;2023-03-12T03:36:41;4.60;99.90
27747;DHT22;15138;51.012;4.692;2023-03-12T03:39:09;4.60;99.90
27747;DHT22;15138;51.012;4.692;2023-03-12T03:41:38;4.60;99.90
27747;DHT22;15138;51.012;4.692;2023-03-12T03:44:06;4.60;99.90
27747;DHT22;15138;51.012;4.692;2023-03-12T03:46:35;4.50;99.90
27747;DHT22;15138;51.012;4.692;2023-03-12T03:49:04;4.60;99.90
27747;DHT22;15138;51.012;4.692;2023-03-12T03:51:34;4.60;99.90
27747;DHT22;15138;51.012;4.692;2023-03-12T03:54:02;4.60;99.90
27747;DHT22;15138;51.012;4.692;2023-03-12T03:56:30;4.60;99.90
27747;DHT22;15138;51.012;4.692;2023-03-12T03:58:59;4.60;99.90
27747;DHT22;15138;51.012;4.692;2023-03-12T04:01:29;4.70;99.90
27747;DHT22;15138;51.012;4.692;2023-03-12T04:03:58;4.70;99.90
27747;DHT22;15138;51.012;4.692;2023-03-12T04:06:27;4.70;99.90
27747;DHT22;15138;51.012;4.692;2023-03-12T04:08:57;4.60;99.90
27747;DHT22;15138;51.012;4.692;2023-03-12T04:11:26;4.60;99.90
27747;DHT22;15138;51.012;4.692;2023-03-12T04:13:55;4.70;99.90
27747;DHT22;15138;51.012;4.692;2023-03-12T04:16:24;4.70;99.90
27747;DHT22;15138;51.012;4.692;2023-03-12T04:18:52;4.70;99.90
27747;DHT22;15138;51.012;4.692;2023-03-12T04:21:21;4.70;99.90
27747;DHT22;15138;51.012;4.692;2023-03-12T04:23:49;4.70;99.90
27747;DHT22;15138;51.012;4.692;2023-03-12T04:26:18;4.70;99.90
27747;DHT22;15138;51.012;4.692;2023-03-12T04:28:47;4.70;99.90
27747;DHT22;15138;51.012;4.692;2023-03-12T04:31:16;4.70;99.90
27747;DHT22;15138;51.012;4.692;2023-03-12T04:33:44;4.70;99.90
27747;DHT22;15138;51.012;4.692;2023-03-12T04:36:13;4.70;99.90
27747;DHT22;15138;51.012;4.692;2023-03-12T04:38:42;4.80;99.90
27747;DHT22;15138;51.012;4.692;2023-03-12T04:41:12;4.80;99.90
27747;DHT22;15138;51.012;4.692;2023-03-12T04:43:42;4.80;99.90
27747;DHT22;15138;51.012;4.692;2023-03-12T04:46:10;4.80;99.90
27747;DHT22;15138;51.012;4.692;2023-03-12T04:48:39;4.70;99.90
27747;DHT22;15138;51.012;4.692;2023-03-12T04:51:07;4.80;99.90
27747;DHT22;15138;51.012;4.692;2023-03-12T04:53:36;4.80;99.90
27747;DHT22;15138;51.012;4.692;2023-03-12T04:56:06;4.80;99.90
27747;DHT22;15138;51.012;4.692;2023-03-12T04:58:35;4.80;99.90
27747;DHT22;15138;51.012;4.692;2023-03-12T05:01:05;4.80;99.90
27747;DHT22;15138;51.012;4.692;2023-03-12T05:03:34;4.80;99.90
27747;DHT22;15138;51.012;4.692;2023-03-12T05:06:03;4.80;99.90
27747;DHT22;15138;51.012;4.692;2023-03-12T05:08:31;4.80;99.90
27747;DHT22;15138;51.012;4.692;2023-03-12T05:11:00;4.80;99.90
27747;DHT22;15138;51.012;4.692;2023-03-12T05:13:28;4.80;1.00
27747;DHT22;15138;51.012;4.692;2023-03-12T05:15:57;4.80;1.00
27747;DHT22;15138;51.012;4.692;2023-03-12T05:18:27;4.80;1.00
27747;DHT22;15138;51.012;4.692;2023-03-12T05:21:00;4.80;1.00
27747;DHT22;15138;51.012;4.692;2023-03-12T05:23:29;4.90;1.00
27747;DHT22;15138;51.012;4.692;2023-03-12T05:25:58;4.90;1.00
27747;DHT22;15138;51.012;4.692;2023-03-12T05:28:27;4.90;1.00
27747;DHT22;15138;51.012;4.692;2023-03-12T05:30:56;4.90;1.00
27747;DHT22;15138;51.012;4.692;2023-03-12T05:33:27;4.90;1.00
27747;DHT22;15138;51.012;4.692;2023-03-12T05:35:56;5.00;1.00
27747;DHT22;15138;51.012;4.692;2023-03-12T05:38:25;5.00;1.00
27747;DHT22;15138;51.012;4.692;2023-03-12T05:40:54;5.00;1.00
27747;DHT22;15138;51.012;4.692;2023-03-12T05:43:23;5.00;1.00
27747;DHT22;15138;51.012;4.692;2023-03-12T05:45:52;5.10;1.00
27747;DHT22;15138;51.012;4.692;2023-03-12T05:48:20;5.10;1.00
27747;DHT22;15138;51.012;4.692;2023-03-12T05:50:50;5.10;1.00
27747;DHT22;15138;51.012;4.692;2023-03-12T05:53:19;5.10;1.00
27747;DHT22;15138;51.012;4.692;2023-03-12T05:55:47;5.10;1.00
27747;DHT22;15138;51.012;4.692;2023-03-12T05:58:15;5.10;1.00
27747;DHT22;15138;51.012;4.692;2023-03-12T06:00:44;5.30;99.90
27747;DHT22;15138;51.012;4.692;2023-03-12T06:03:12;5.20;1.00
27747;DHT22;15138;51.012;4.692;2023-03-12T06:05:43;5.20;1.00
27747;DHT22;15138;51.012;4.692;2023-03-12T06:08:15;5.20;1.00
27747;DHT22;15138;51.012;4.692;2023-03-12T06:10:44;5.30;1.00
27747;DHT22;15138;51.012;4.692;2023-03-12T06:13:12;5.30;51.30
27747;DHT22;15138;51.012;4.692;2023-03-12T06:20:40;5.40;58.60
27747;DHT22;15138;51.012;4.692;2023-03-12T06:23:09;5.50;1.00
27747;DHT22;15138;51.012;4.692;2023-03-12T06:25:39;5.60;1.00
27747;DHT22;15138;51.012;4.692;2023-03-12T06:28:07;5.40;1.00
27747;DHT22;15138;51.012;4.692;2023-03-12T06:35:34;5.50;1.00
27747;DHT22;15138;51.012;4.692;2023-03-12T06:40:32;5.60;99.90
27747;DHT22;15138;51.012;4.692;2023-03-12T06:43:02;5.60;1.00
27747;DHT22;15138;51.012;4.692;2023-03-12T06:45:30;5.60;1.00
27747;DHT22;15138;51.012;4.692;2023-03-12T06:47:59;5.60;99.90
27747;DHT22;15138;51.012;4.692;2023-03-12T06:50:28;5.70;99.90
27747;DHT22;15138;51.012;4.692;2023-03-12T06:52:56;5.70;1.00
27747;DHT22;15138;51.012;4.692;2023-03-12T06:55:24;5.70;48.20
27747;DHT22;15138;51.012;4.692;2023-03-12T06:57:53;5.70;99.90
27747;DHT22;15138;51.012;4.692;2023-03-12T07:00:23;5.80;1.00
27747;DHT22;15138;51.012;4.692;2023-03-12T07:02:51;5.80;99.90
27747;DHT22;15138;51.012;4.692;2023-03-12T07:05:20;5.80;55.10
27747;DHT22;15138;51.012;4.692;2023-03-12T07:07:48;5.90;1.00
27747;DHT22;15138;51.012;4.692;2023-03-12T07:10:17;5.90;1.00
27747;DHT22;15138;51.012;4.692;2023-03-12T07:12:45;6.00;99.90
27747;DHT22;15138;51.012;4.692;2023-03-12T07:15:14;6.10;1.00
27747;DHT22;15138;51.012;4.692;2023-03-12T07:17:43;6.10;99.90
27747;DHT22;15138;51.012;4.692;2023-03-12T07:20:12;6.10;99.90
27747;DHT22;15138;51.012;4.692;2023-03-12T07:22:41;6.20;99.90
27747;DHT22;15138;51.012;4.692;2023-03-12T07:25:10;6.20;99.90
27747;DHT22;15138;51.012;4.692;2023-03-12T07:27:38;6.40;1.00
27747;DHT22;15138;51.012;4.692;2023-03-12T07:30:08;6.50;1.00
27747;DHT22;15138;51.012;4.692;2023-03-12T07:32:36;6.60;1.00
27747;DHT22;15138;51.012;4.692;2023-03-12T07:35:08;6.60;1.00
27747;DHT22;15138;51.012;4.692;2023-03-12T07:37:37;6.80;1.00
27747;DHT22;15138;51.012;4.692;2023-03-12T07:40:07;6.80;1.00
27747;DHT22;15138;51.012;4.692;2023-03-12T07:42:36;7.00;99.90
27747;DHT22;15138;51.012;4.692;2023-03-12T07:45:05;7.10;99.90
27747;DHT22;15138;51.012;4.692;2023-03-12T07:47:34;7.10;99.90
27747;DHT22;15138;51.012;4.692;2023-03-12T07:50:03;7.30;99.90
27747;DHT22;15138;51.012;4.692;2023-03-12T07:52:33;7.40;99.90
27747;DHT22;15138;51.012;4.692;2023-03-12T07:55:01;7.50;99.90
27747;DHT22;15138;51.012;4.692;2023-03-12T07:57:30;7.60;99.90
27747;DHT22;15138;51.012;4.692;2023-03-12T07:59:58;7.70;1.00
27747;DHT22;15138;51.012;4.692;2023-03-12T08:04:56;7.80;1.00
27747;DHT22;15138;51.012;4.692;2023-03-12T08:07:24;8.00;1.00
27747;DHT22;15138;51.012;4.692;2023-03-12T08:09:59;7.90;99.90
27747;DHT22;15138;51.012;4.692;2023-03-12T08:12:28;8.00;99.90
27747;DHT22;15138;51.012;4.692;2023-03-12T08:14:57;8.00;99.90
27747;DHT22;15138;51.012;4.692;2023-03-12T08:17:25;8.00;99.90
27747;DHT22;15138;51.012;4.692;2023-03-12T08:19:53;8.00;99.90
27747;DHT22;15138;51.012;4.692;2023-03-12T08:22:22;8.20;99.90
27747;DHT22;15138;51.012;4.692;2023-03-12T08:24:51;8.20;99.90
27747;DHT22;15138;51.012;4.692;2023-03-12T08:27:21;8.30;99.90
27747;DHT22;15138;51.012;4.692;2023-03-12T08:29:50;8.30;99.90
27747;DHT22;15138;51.012;4.692;2023-03-12T08:32:18;8.40;99.90
27747;DHT22;15138;51.012;4.692;2023-03-12T08:34:47;8.50;99.90
27747;DHT22;15138;51.012;4.692;2023-03-12T08:37:15;8.50;1.00
27747;DHT22;15138;51.012;4.692;2023-03-12T08:39:44;8.60;99.90
27747;DHT22;15138;51.012;4.692;2023-03-12T08:42:12;8.60;99.90
27747;DHT22;15138;51.012;4.692;2023-03-12T08:44:42;8.70;99.90
27747;DHT22;15138;51.012;4.692;2023-03-12T08:47:11;8.80;99.90
27747;DHT22;15138;51.012;4.692;2023-03-12T08:49:39;8.90;99.90
27747;DHT22;15138;51.012;4.692;2023-03-12T08:52:08;8.90;99.90
27747;DHT22;15138;51.012;4.692;2023-03-12T08:54:36;9.00;99.90
27747;DHT22;15138;51.012;4.692;2023-03-12T08:57:04;9.10;25.10
27747;DHT22;15138;51.012;4.692;2023-03-12T08:59:33;9.20;1.00
27747;DHT22;15138;51.012;4.692;2023-03-12T09:02:02;9.30;1.00
27747;DHT22;15138;51.012;4.692;2023-03-12T09:04:31;9.40;99.90
27747;DHT22;15138;51.012;4.692;2023-03-12T09:07:00;9.40;1.00
27747;DHT22;15138;51.012;4.692;2023-03-12T09:09:28;9.60;1.00
27747;DHT22;15138;51.012;4.692;2023-03-12T09:11:57;9.60;99.90
27747;DHT22;15138;51.012;4.692;2023-03-12T09:14:26;9.80;1.00
27747;DHT22;15138;51.012;4.692;2023-03-12T09:17:16;9.80;99.90
27747;DHT22;15138;51.012;4.692;2023-03-12T09:19:44;9.90;1.00
27747;DHT22;15138;51.012;4.692;2023-03-12T09:22:13;10.00;99.90
27747;DHT22;15138;51.012;4.692;2023-03-12T09:24:41;10.00;1.00
27747;DHT22;15138;51.012;4.692;2023-03-12T09:27:09;10.10;1.00
27747;DHT22;15138;51.012;4.692;2023-03-12T09:29:38;10.20;99.90
27747;DHT22;15138;51.012;4.692;2023-03-12T09:32:26;10.30;99.90
27747;DHT22;15138;51.012;4.692;2023-03-12T09:34:55;10.30;99.90
27747;DHT22;15138;51.012;4.692;2023-03-12T09:37:23;10.50;99.90
27747;DHT22;15138;51.012;4.692;2023-03-12T09:39:52;10.60;25.00
27747;DHT22;15138;51.012;4.692;2023-03-12T09:42:23;10.80;71.40
27747;DHT22;15138;51.012;4.692;2023-03-12T09:44:54;10.80;1.00
27747;DHT22;15138;51.012;4.692;2023-03-12T09:47:29;10.90;1.00
27747;DHT22;15138;51.012;4.692;2023-03-12T09:50:02;11.10;1.00
27747;DHT22;15138;51.012;4.692;2023-03-12T09:52:36;11.10;99.90
27747;DHT22;15138;51.012;4.692;2023-03-12T09:55:11;11.40;99.90
27747;DHT22;15138;51.012;4.692;2023-03-12T09:57:41;11.60;99.90
27747;DHT22;15138;51.012;4.692;2023-03-12T10:00:12;11.70;1.00
27747;DHT22;15138;51.012;4.692;2023-03-12T10:02:53;12.10;1.00
27747;DHT22;15138;51.012;4.692;2023-03-12T10:05:35;12.30;1.00
27747;DHT22;15138;51.012;4.692;2023-03-12T10:08:09;12.50;99.90
27747;DHT22;15138;51.012;4.692;2023-03-12T10:10:54;12.70;99.90
27747;DHT22;15138;51.012;4.692;2023-03-12T10:13:45;12.40;99.90
27747;DHT22;15138;51.012;4.692;2023-03-12T10:16:28;12.40;99.90
27747;DHT22;15138;51.012;4.692;2023-03-12T10:19:20;12.50;99.90
27747;DHT22;15138;51.012;4.692;2023-03-12T10:21:56;12.40;99.90
27747;DHT22;15138;51.012;4.692;2023-03-12T10:24:39;12.40;99.90
27747;DHT22;15138;51.012;4.692;2023-03-12T10:27:13;12.70;99.90
27747;DHT22;15138;51.012;4.692;2023-03-12T10:29:45;12.80;99.90
27747;DHT22;15138;51.012;4.692;2023-03-12T10:32:16;12.70;99.90
27747;DHT22;15138;51.012;4.692;2023-03-12T10:34:51;12.60;99.90
27747;DHT22;15138;51.012;4.692;2023-03-12T10:37:24;12.50;99.90
27747;DHT22;15138;51.012;4.692;2023-03-12T10:39:53;12.40;99.90
27747;DHT22;15138;51.012;4.692;2023-03-12T10:42:25;12.50;99.90
27747;DHT22;15138;51.012;4.692;2023-03-12T10:44:57;12.40;99.90
27747;DHT22;15138;51.012;4.692;2023-03-12T10:47:33;12.30;99.90
27747;DHT22;15138;51.012;4.692;2023-03-12T10:50:15;12.30;99.90
27747;DHT22;15138;51.012;4.692;2023-03-12T10:52:45;12.30;99.90
27747;DHT22;15138;51.012;4.692;2023-03-12T10:55:21;12.40;99.90
27747;DHT22;15138;51.012;4.692;2023-03-12T10:57:50;12.40;99.90
27747;DHT22;15138;51.012;4.692;2023-03-12T11:00:21;12.50;99.90
27747;DHT22;15138;51.012;4.692;2023-03-12T11:02:58;12.70;99.90
27747;DHT22;15138;51.012;4.692;2023-03-12T11:05:30;12.80;99.90
27747;DHT22;15138;51.012;4.692;2023-03-12T11:07:59;12.90;99.90
27747;DHT22;15138;51.012;4.692;2023-03-12T11:10:40;12.90;95.60
27747;DHT22;15138;51.012;4.692;2023-03-12T11:13:30;13.10;71.60
27747;DHT22;15138;51.012;4.692;2023-03-12T11:16:01;13.20;64.00
27747;DHT22;15138;51.012;4.692;2023-03-12T11:18:32;13.10;46.90
27747;DHT22;15138;51.012;4.692;2023-03-12T11:21:17;13.10;45.10
27747;DHT22;15138;51.012;4.692;2023-03-12T11:24:03;13.00;6.30
27747;DHT22;15138;51.012;4.692;2023-03-12T11:26:37;12.90;1.00
27747;DHT22;15138;51.012;4.692;2023-03-12T11:29:16;13.00;1.00
27747;DHT22;15138;51.012;4.692;2023-03-12T11:31:53;13.30;1.00
27747;DHT22;15138;51.012;4.692;2023-03-12T11:34:26;13.30;1.00
27747;DHT22;15138;51.012;4.692;2023-03-12T11:37:04;13.20;1.00
27747;DHT22;15138;51.012;4.692;2023-03-12T11:42:35;13.20;1.00
27747;DHT22;15138;51.012;4.692;2023-03-12T11:45:16;13.10;1.00
27747;DHT22;15138;51.012;4.692;2023-03-12T11:47:58;13.10;1.00
27747;DHT22;15138;51.012;4.692;2023-03-12T11:50:40;12.90;1.00
27747;DHT22;15138;51.012;4.692;2023-03-12T11:53:37;12.80;1.00
27747;DHT22;15138;51.012;4.692;2023-03-12T11:56:25;12.80;1.00
27747;DHT22;15138;51.012;4.692;2023-03-12T11:59:08;13.20;1.00
27747;DHT22;15138;51.012;4.692;2023-03-12T12:01:52;13.30;1.00
27747;DHT22;15138;51.012;4.692;2023-03-12T12:07:32;13.50;1.00
27747;DHT22;15138;51.012;4.692;2023-03-12T12:10:16;13.60;1.00
27747;DHT22;15138;51.012;4.692;2023-03-12T12:12:55;13.40;1.00
27747;DHT22;15138;51.012;4.692;2023-03-12T12:15:34;13.30;1.00
27747;DHT22;15138;51.012;4.692;2023-03-12T12:18:32;13.30;1.00
27747;DHT22;15138;51.012;4.692;2023-03-12T12:21:17;13.20;1.00
27747;DHT22;15138;51.012;4.692;2023-03-12T12:23:54;13.20;1.00
27747;DHT22;15138;51.012;4.692;2023-03-12T12:26:33;13.30;1.00
27747;DHT22;15138;51.012;4.692;2023-03-12T12:29:19;13.40;1.00
27747;DHT22;15138;51.012;4.692;2023-03-12T12:31:54;13.40;1.00
27747;DHT22;15138;51.012;4.692;2023-03-12T12:34:48;13.30;1.00
27747;DHT22;15138;51.012;4.692;2023-03-12T12:37:24;13.40;1.00
27747;DHT22;15138;51.012;4.692;2023-03-12T12:40:04;13.70;1.00
27747;DHT22;15138;51.012;4.692;2023-03-12T12:42:51;13.50;1.00
27747;DHT22;15138;51.012;4.692;2023-03-12T12:45:22;13.60;1.00
27747;DHT22;15138;51.012;4.692;2023-03-12T12:47:56;13.50;1.00
27747;DHT22;15138;51.012;4.692;2023-03-12T12:50:29;13.30;1.00
27747;DHT22;15138;51.012;4.692;2023-03-12T12:53:07;13.40;1.00
27747;DHT22;15138;51.012;4.692;2023-03-12T12:55:48;13.30;1.00
27747;DHT22;15138;51.012;4.692;2023-03-12T12:58:24;13.40;1.00
27747;DHT22;15138;51.012;4.692;2023-03-12T13:00:55;13.30;1.00
27747;DHT22;15138;51.012;4.692;2023-03-12T13:03:25;13.30;1.00
27747;DHT22;15138;51.012;4.692;2023-03-12T13:05:56;13.50;1.00
27747;DHT22;15138;51.012;4.692;2023-03-12T13:08:58;13.60;1.00
27747;DHT22;15138;51.012;4.692;2023-03-12T13:11:29;13.60;1.00
27747;DHT22;15138;51.012;4.692;2023-03-12T13:14:21;13.80;1.00
27747;DHT22;15138;51.012;4.692;2023-03-12T13:17:25;13.80;1.00
27747;DHT22;15138;51.012;4.692;2023-03-12T13:19:58;14.10;1.00
27747;DHT22;15138;51.012;4.692;2023-03-12T13:22:52;13.80;1.00
27747;DHT22;15138;51.012;4.692;2023-03-12T13:25:37;13.80;1.00
27747;DHT22;15138;51.012;4.692;2023-03-12T13:28:37;13.90;1.00
27747;DHT22;15138;51.012;4.692;2023-03-12T13:31:40;14.50;1.00
27747;DHT22;15138;51.012;4.692;2023-03-12T13:37:26;14.20;1.00
27747;DHT22;15138;51.012;4.692;2023-03-12T13:40:01;14.10;1.00
27747;DHT22;15138;51.012;4.692;2023-03-12T13:42:38;14.60;1.00
27747;DHT22;15138;51.012;4.692;2023-03-12T13:45:25;14.70;1.00
27747;DHT22;15138;51.012;4.692;2023-03-12T13:47:58;14.70;1.00
27747;DHT22;15138;51.012;4.692;2023-03-12T13:50:29;14.40;1.00
27747;DHT22;15138;51.012;4.692;2023-03-12T13:53:02;14.50;1.00
27747;DHT22;15138;51.012;4.692;2023-03-12T13:55:33;14.30;1.00
27747;DHT22;15138;51.012;4.692;2023-03-12T13:58:07;14.30;1.00
27747;DHT22;15138;51.012;4.692;2023-03-12T14:00:40;14.60;1.00
27747;DHT22;15138;51.012;4.692;2023-03-12T14:03:15;14.30;1.00
27747;DHT22;15138;51.012;4.692;2023-03-12T14:05:47;14.20;1.00
27747;DHT22;15138;51.012;4.692;2023-03-12T14:08:48;14.00;1.00
27747;DHT22;15138;51.012;4.692;2023-03-12T14:11:32;14.10;1.00
27747;DHT22;15138;51.012;4.692;2023-03-12T14:14:36;13.90;1.00
27747;DHT22;15138;51.012;4.692;2023-03-12T14:17:15;13.90;1.00
27747;DHT22;15138;51.012;4.692;2023-03-12T14:19:49;13.90;1.00
27747;DHT22;15138;51.012;4.692;2023-03-12T14:22:18;13.60;1.00
27747;DHT22;15138;51.012;4.692;2023-03-12T14:24:52;13.70;1.00
27747;DHT22;15138;51.012;4.692;2023-03-12T14:27:25;13.80;1.00
27747;DHT22;15138;51.012;4.692;2023-03-12T14:29:56;13.80;1.00
27747;DHT22;15138;51.012;4.692;2023-03-12T14:32:28;13.70;1.00
27747;DHT22;15138;51.012;4.692;2023-03-12T14:35:10;13.70;1.00
27747;DHT22;15138;51.012;4.692;2023-03-12T14:37:42;13.80;1.00
27747;DHT22;15138;51.012;4.692;2023-03-12T14:40:21;13.60;1.00
27747;DHT22;15138;51.012;4.692;2023-03-12T14:42:51;13.50;1.00
27747;DHT22;15138;51.012;4.692;2023-03-12T14:45:21;13.30;1.00
27747;DHT22;15138;51.012;4.692;2023-03-12T14:47:52;13.30;1.00
27747;DHT22;15138;51.012;4.692;2023-03-12T14:50:25;13.30;1.00
27747;DHT22;15138;51.012;4.692;2023-03-12T14:53:09;13.40;1.00
27747;DHT22;15138;51.012;4.692;2023-03-12T14:55:38;13.40;1.00
27747;DHT22;15138;51.012;4.692;2023-03-12T14:58:15;13.60;1.00
27747;DHT22;15138;51.012;4.692;2023-03-12T15:00:44;13.50;1.00
27747;DHT22;15138;51.012;4.692;2023-03-12T15:03:24;13.30;1.00
27747;DHT22;15138;51.012;4.692;2023-03-12T15:05:54;13.30;1.00
27747;DHT22;15138;51.012;4.692;2023-03-12T15:08:23;13.30;1.00
27747;DHT22;15138;51.012;4.692;2023-03-12T15:10:54;13.40;1.00
27747;DHT22;15138;51.012;4.692;2023-03-12T15:13:25;13.50;1.00
27747;DHT22;15138;51.012;4.692;2023-03-12T15:15:54;13.60;1.00
27747;DHT22;15138;51.012;4.692;2023-03-12T15:18:25;13.40;1.00
27747;DHT22;15138;51.012;4.692;2023-03-12T15:20:57;13.30;1.00
27747;DHT22;15138;51.012;4.692;2023-03-12T15:23:29;13.20;1.00
27747;DHT22;15138;51.012;4.692;2023-03-12T15:26:11;13.20;1.00
27747;DHT22;15138;51.012;4.692;2023-03-12T15:28:40;13.10;1.00
27747;DHT22;15138;51.012;4.692;2023-03-12T15:31:11;13.20;1.00
27747;DHT22;15138;51.012;4.692;2023-03-12T15:33:42;13.10;1.00
27747;DHT22;15138;51.012;4.692;2023-03-12T15:36:24;13.10;1.00
27747;DHT22;15138;51.012;4.692;2023-03-12T15:38:57;13.20;1.00
27747;DHT22;15138;51.012;4.692;2023-03-12T15:41:35;13.20;1.00
27747;DHT22;15138;51.012;4.692;2023-03-12T15:44:17;13.10;1.00
27747;DHT22;15138;51.012;4.692;2023-03-12T15:46:47;13.10;1.00
27747;DHT22;15138;51.012;4.692;2023-03-12T15:49:27;13.10;1.00
27747;DHT22;15138;51.012;4.692;2023-03-12T15:52:02;13.10;1.00
27747;DHT22;15138;51.012;4.692;2023-03-12T15:54:31;13.10;1.00
27747;DHT22;15138;51.012;4.692;2023-03-12T15:57:20;13.10;1.00
27747;DHT22;15138;51.012;4.692;2023-03-12T16:00:14;13.00;1.00
27747;DHT22;15138;51.012;4.692;2023-03-12T16:02:50;12.90;1.00
27747;DHT22;15138;51.012;4.692;2023-03-12T16:05:20;12.90;1.00
27747;DHT22;15138;51.012;4.692;2023-03-12T16:07:51;12.90;1.00
27747;DHT22;15138;51.012;4.692;2023-03-12T16:10:22;12.90;1.00
27747;DHT22;15138;51.012;4.692;2023-03-12T16:12:58;12.80;1.00
27747;DHT22;15138;51.012;4.692;2023-03-12T16:15:30;12.80;1.00
27747;DHT22;15138;51.012;4.692;2023-03-12T16:17:59;12.80;1.00
27747;DHT22;15138;51.012;4.692;2023-03-12T16:20:28;12.80;1.00
27747;DHT22;15138;51.012;4.692;2023-03-12T16:22:58;12.70;1.00
27747;DHT22;15138;51.012;4.692;2023-03-12T16:25:26;12.80;1.00
27747;DHT22;15138;51.012;4.692;2023-03-12T16:27:57;12.70;1.00
27747;DHT22;15138;51.012;4.692;2023-03-12T16:30:29;12.60;1.00
27747;DHT22;15138;51.012;4.692;2023-03-12T16:32:58;12.60;1.00
27747;DHT22;15138;51.012;4.692;2023-03-12T16:35:27;12.60;1.00
27747;DHT22;15138;51.012;4.692;2023-03-12T16:37:58;12.60;1.00
27747;DHT22;15138;51.012;4.692;2023-03-12T16:40:30;12.60;1.00
27747;DHT22;15138;51.012;4.692;2023-03-12T16:43:00;12.50;1.00
27747;DHT22;15138;51.012;4.692;2023-03-12T16:45:33;12.50;1.00
27747;DHT22;15138;51.012;4.692;2023-03-12T16:48:04;12.50;1.00
27747;DHT22;15138;51.012;4.692;2023-03-12T16:50:33;12.50;1.00